createdAt,value
2023-04-08T00:00:08.800Z,55.70
2023-04-08T00:02:11.739Z,55.80
2023-04-08T00:04:15.086Z,55.70
2023-04-08T00:06:17.957Z,55.80
2023-04-08T00:08:20.965Z,55.80
2023-04-08T00:10:32.429Z,56.20
2023-04-08T00:12:35.481Z,56.90
2023-04-08T00:14:38.707Z,56.20
2023-04-08T00:16:42.785Z,56.40
2023-04-08T00:18:45.578Z,56.40
2023-04-08T00:20:48.301Z,56.70
2023-04-08T00:22:51.075Z,56.80
2023-04-08T00:24:53.810Z,56.90
2023-04-08T00:26:56.578Z,57.20
2023-04-08T00:28:59.468Z,57.10
2023-04-08T00:31:02.249Z,57.10
2023-04-08T00:33:06.360Z,57.00
2023-04-08T00:35:09.668Z,57.00
2023-04-08T00:37:12.416Z,57.00
2023-04-08T00:39:15.636Z,57.00
2023-04-08T00:41:18.503Z,57.10
2023-04-08T00:43:21.647Z,57.10
2023-04-08T00:45:24.495Z,57.20
2023-04-08T00:47:27.378Z,57.30
2023-04-08T00:49:32.500Z,57.50
2023-04-08T00:51:36.415Z,57.60
2023-04-08T00:53:39.199Z,57.80
2023-04-08T00:55:42.086Z,57.90
2023-04-08T00:57:45.695Z,58.50
2023-04-08T00:59:48.612Z,58.10
2023-04-08T01:01:58.915Z,58.20
2023-04-08T01:04:10.832Z,58.40
2023-04-08T01:06:26.209Z,59.00
2023-04-08T01:08:31.936Z,59.10
2023-04-08T01:10:36.340Z,59.90
2023-04-08T01:12:48.794Z,61.60
2023-04-08T01:14:57.568Z,60.30
2023-04-08T01:17:01.626Z,60.20
2023-04-08T01:19:06.201Z,61.40
2023-04-08T01:21:09.550Z,61.20
2023-04-08T01:23:21.472Z,59.90
2023-04-08T01:25:28.142Z,59.80
2023-04-08T01:27:34.245Z,59.60
2023-04-08T01:29:38.238Z,60.60
2023-04-08T01:31:43.420Z,59.40
2023-04-08T01:33:47.389Z,59.30
2023-04-08T01:35:50.401Z,59.20
2023-04-08T01:37:54.799Z,59.00
2023-04-08T01:39:58.278Z,59.00
2023-04-08T01:42:02.515Z,60.40
2023-04-08T01:44:07.297Z,60.80
2023-04-08T01:46:12.649Z,60.80
2023-04-08T01:48:16.770Z,60.30
2023-04-08T01:50:20.751Z,59.10
2023-04-08T01:52:24.948Z,59.10
2023-04-08T01:54:27.852Z,59.30
2023-04-08T01:56:33.016Z,60.10
2023-04-08T01:58:40.900Z,59.40
2023-04-08T02:00:46.379Z,59.80
2023-04-08T02:02:50.567Z,59.70
2023-04-08T02:04:54.201Z,59.60
2023-04-08T02:06:57.578Z,59.90
2023-04-08T02:09:01.653Z,59.90
2023-04-08T02:11:04.622Z,59.80
2023-04-08T02:13:08.481Z,59.70
2023-04-08T02:15:12.224Z,60.00
2023-04-08T02:17:27.066Z,60.00
2023-04-08T02:19:32.640Z,60.10
2023-04-08T02:21:40.388Z,60.70
2023-04-08T02:23:47.247Z,61.00
2023-04-08T02:25:51.362Z,61.80
2023-04-08T02:27:55.587Z,62.80
2023-04-08T02:29:59.670Z,62.10
2023-04-08T02:32:03.082Z,62.20
2023-04-08T02:34:09.471Z,62.10
2023-04-08T02:36:13.348Z,62.10
2023-04-08T02:38:16.650Z,62.10
2023-04-08T02:40:27.338Z,62.20
2023-04-08T02:42:30.346Z,62.60
2023-04-08T02:44:33.149Z,63.40
2023-04-08T02:46:35.940Z,64.90
2023-04-08T02:48:38.675Z,64.40
2023-04-08T02:50:42.761Z,63.90
2023-04-08T02:52:45.631Z,65.20
2023-04-08T02:54:48.352Z,66.50
2023-04-08T02:56:51.188Z,66.60
2023-04-08T02:58:53.980Z,66.90
2023-04-08T03:00:57.140Z,67.30
2023-04-08T03:03:00.204Z,67.80
2023-04-08T03:05:03.780Z,68.30
2023-04-08T03:07:08.836Z,67.90
2023-04-08T03:09:11.704Z,67.90
2023-04-08T03:11:14.459Z,67.40
2023-04-08T03:13:17.571Z,69.10
2023-04-08T03:15:20.499Z,67.60
2023-04-08T03:17:23.390Z,68.00
2023-04-08T03:19:26.159Z,69.30
2023-04-08T03:21:31.628Z,68.70
2023-04-08T03:23:35.754Z,69.20
2023-04-08T03:25:38.602Z,69.90
2023-04-08T03:27:41.363Z,70.40
2023-04-08T03:29:45.778Z,70.50
2023-04-08T03:31:48.545Z,71.40
2023-04-08T03:33:51.357Z,70.80
2023-04-08T03:35:54.965Z,70.40
2023-04-08T03:37:57.768Z,71.00
2023-04-08T03:40:01.934Z,71.50
2023-04-08T03:42:04.776Z,71.30
2023-04-08T03:44:07.611Z,71.90
2023-04-08T03:46:10.786Z,72.00
2023-04-08T03:48:13.609Z,72.40
2023-04-08T03:50:16.532Z,73.30
2023-04-08T03:52:19.312Z,73.60
2023-04-08T03:54:22.075Z,72.70
2023-04-08T03:56:26.401Z,72.30
2023-04-08T03:58:29.165Z,72.10
2023-04-08T04:00:32.011Z,71.90
2023-04-08T04:02:34.934Z,72.30
2023-04-08T04:04:37.802Z,73.10
2023-04-08T04:06:40.576Z,73.30
2023-04-08T04:08:43.289Z,74.20
2023-04-08T04:10:46.043Z,74.00
2023-04-08T04:12:51.059Z,74.10
2023-04-08T04:14:53.917Z,74.60
2023-04-08T04:16:56.671Z,74.60
2023-04-08T04:18:59.543Z,74.80
2023-04-08T04:21:05.930Z,75.30
2023-04-08T04:23:08.740Z,75.20
2023-04-08T04:25:12.219Z,75.00
2023-04-08T04:27:15.016Z,76.00
2023-04-08T04:29:19.145Z,76.20
2023-04-08T04:31:22.741Z,76.00
2023-04-08T04:33:25.735Z,75.50
2023-04-08T04:35:28.573Z,74.90
2023-04-08T04:37:31.350Z,76.90
2023-04-08T04:39:34.160Z,76.90
2023-04-08T04:41:40.512Z,76.70
2023-04-08T04:43:43.264Z,76.80
2023-04-08T04:45:47.419Z,76.20
2023-04-08T04:47:50.317Z,75.90
2023-04-08T04:49:53.099Z,76.00
2023-04-08T04:51:55.882Z,75.80
2023-04-08T04:53:58.641Z,75.30
2023-04-08T04:56:02.465Z,76.40
2023-04-08T04:58:05.413Z,76.40
2023-04-08T05:00:10.285Z,76.70
2023-04-08T05:02:14.469Z,77.60
2023-04-08T05:04:20.293Z,77.30
2023-04-08T05:06:24.597Z,77.10
2023-04-08T05:08:28.166Z,76.90
2023-04-08T05:10:31.277Z,77.60
2023-04-08T05:12:34.124Z,79.20
2023-04-08T05:14:36.890Z,79.20
2023-04-08T05:16:39.863Z,79.40
2023-04-08T05:18:43.940Z,80.30
2023-04-08T05:20:46.962Z,80.30
2023-04-08T05:22:50.853Z,80.50
2023-04-08T05:24:53.597Z,80.90
2023-04-08T05:26:57.777Z,81.50
2023-04-08T05:29:00.580Z,81.20
2023-04-08T05:31:03.376Z,80.60
2023-04-08T05:33:06.162Z,80.00
2023-04-08T05:35:11.250Z,79.40
2023-04-08T05:37:14.075Z,79.70
2023-04-08T05:39:16.772Z,80.80
2023-04-08T05:41:19.501Z,80.80
2023-04-08T05:43:22.217Z,80.60
2023-04-08T05:45:25.014Z,80.70
2023-04-08T05:47:27.804Z,81.30
2023-04-08T05:49:30.561Z,81.60
2023-04-08T05:51:34.657Z,82.50
2023-04-08T05:53:37.404Z,82.80
2023-04-08T05:55:40.089Z,82.30
2023-04-08T05:57:43.227Z,82.00
2023-04-08T05:59:46.092Z,82.30
2023-04-08T06:01:48.861Z,83.70
2023-04-08T06:03:52.863Z,84.20
2023-04-08T06:05:55.810Z,84.40
2023-04-08T06:08:00.572Z,84.80
2023-04-08T06:10:03.456Z,84.30
2023-04-08T06:12:06.700Z,84.20
2023-04-08T06:14:09.447Z,83.60
2023-04-08T06:16:13.169Z,83.00
2023-04-08T06:18:16.164Z,82.70
2023-04-08T06:20:18.910Z,82.20
2023-04-08T06:22:21.747Z,82.00
2023-04-08T06:24:27.265Z,82.00
2023-04-08T06:26:30.001Z,82.50
2023-04-08T06:28:32.866Z,82.90
2023-04-08T06:30:35.773Z,82.90
2023-04-08T06:32:38.539Z,82.80
2023-04-08T06:34:42.071Z,82.50
2023-04-08T06:36:44.829Z,83.00
2023-04-08T06:38:47.556Z,83.10
2023-04-08T06:40:51.616Z,83.00
2023-04-08T06:42:55.041Z,82.80
2023-04-08T06:44:58.148Z,82.50
2023-04-08T06:47:00.922Z,82.20
2023-04-08T06:49:04.594Z,82.20
2023-04-08T06:51:08.080Z,81.90
2023-04-08T06:53:11.062Z,82.50
2023-04-08T06:55:14.052Z,82.40
2023-04-08T06:57:18.154Z,82.80
2023-04-08T06:59:21.136Z,83.30
2023-04-08T07:01:25.014Z,83.60
2023-04-08T07:03:28.050Z,83.80
2023-04-08T07:05:31.095Z,83.70
2023-04-08T07:07:33.875Z,83.40
2023-04-08T07:09:37.091Z,83.00
2023-04-08T07:11:39.837Z,83.60
2023-04-08T07:13:44.227Z,83.20
2023-04-08T07:15:47.208Z,83.10
2023-04-08T07:17:50.066Z,81.80
2023-04-08T07:19:52.863Z,81.20
2023-04-08T07:21:56.384Z,82.40
2023-04-08T07:23:59.187Z,82.70
2023-04-08T07:26:14.592Z,81.90
2023-04-08T07:28:17.536Z,81.70
2023-04-08T07:30:22.291Z,81.70
2023-04-08T07:32:25.152Z,81.40
2023-04-08T07:34:27.922Z,81.20
2023-04-08T07:36:30.680Z,81.20
2023-04-08T07:38:33.576Z,80.80
2023-04-08T07:40:36.718Z,80.40
2023-04-08T07:42:40.783Z,80.10
2023-04-08T07:44:43.651Z,80.20
2023-04-08T07:46:50.949Z,80.30
2023-04-08T07:48:53.696Z,80.00
2023-04-08T07:51:08.458Z,79.00
2023-04-08T07:53:12.338Z,79.40
2023-04-08T07:55:15.103Z,79.10
2023-04-08T07:57:18.353Z,78.70
2023-04-08T07:59:21.285Z,78.30
2023-04-08T08:01:26.644Z,78.00
2023-04-08T08:03:33.244Z,77.70
2023-04-08T08:05:37.312Z,76.90
2023-04-08T08:07:40.420Z,77.30
2023-04-08T08:09:43.195Z,76.50
2023-04-08T08:11:45.990Z,76.60
2023-04-08T08:13:49.126Z,76.70
2023-04-08T08:15:54.435Z,76.30
2023-04-08T08:17:57.190Z,76.40
2023-04-08T08:20:01.571Z,76.40
2023-04-08T08:22:04.328Z,75.60
2023-04-08T08:24:07.421Z,75.50
2023-04-08T08:26:10.985Z,76.50
2023-04-08T08:28:14.293Z,76.80
2023-04-08T08:30:18.443Z,76.80
2023-04-08T08:32:21.166Z,76.20
2023-04-08T08:34:23.875Z,75.80
2023-04-08T08:36:28.499Z,75.90
2023-04-08T08:38:31.231Z,76.40
2023-04-08T08:40:34.123Z,76.20
2023-04-08T08:42:36.943Z,76.20
2023-04-08T08:44:39.714Z,75.80
2023-04-08T08:46:45.877Z,75.70
2023-04-08T08:48:48.685Z,75.90
2023-04-08T08:50:51.742Z,75.80
2023-04-08T08:52:55.900Z,75.50
2023-04-08T08:54:59.599Z,75.70
2023-04-08T08:57:02.593Z,75.70
2023-04-08T08:59:05.489Z,75.70
2023-04-08T09:01:33.609Z,75.50
2023-04-08T09:03:36.945Z,75.60
2023-04-08T09:05:48.995Z,75.70
2023-04-08T09:07:51.834Z,76.30
2023-04-08T09:09:57.297Z,75.70
2023-04-08T09:12:06.148Z,75.60
2023-04-08T09:14:19.912Z,75.50
2023-04-08T09:16:23.306Z,75.60
2023-04-08T09:18:26.309Z,75.60
2023-04-08T09:20:29.162Z,75.70
2023-04-08T09:22:31.983Z,75.90
2023-04-08T09:24:35.112Z,75.80
2023-04-08T09:26:39.419Z,75.80
2023-04-08T09:28:43.719Z,75.70
2023-04-08T09:30:46.867Z,75.60
2023-04-08T09:32:51.157Z,75.80
2023-04-08T09:34:53.942Z,75.60
2023-04-08T09:36:57.135Z,75.80
2023-04-08T09:38:59.926Z,76.30
2023-04-08T09:41:07.853Z,76.20
2023-04-08T09:43:14.386Z,76.30
2023-04-08T09:45:18.338Z,75.50
2023-04-08T09:47:25.864Z,75.80
2023-04-08T09:49:31.463Z,75.70
2023-04-08T09:51:39.493Z,76.10
2023-04-08T09:53:49.188Z,75.90
2023-04-08T09:55:56.378Z,75.60
2023-04-08T09:58:02.639Z,75.70
2023-04-08T10:00:11.818Z,75.80
2023-04-08T10:02:20.131Z,75.00
2023-04-08T10:04:27.631Z,75.30
2023-04-08T10:06:31.491Z,73.10
2023-04-08T10:08:34.696Z,74.20
2023-04-08T10:10:40.160Z,75.70
2023-04-08T10:12:43.197Z,76.60
2023-04-08T10:15:25.437Z,77.80
2023-04-08T10:17:28.750Z,77.80
2023-04-08T10:19:39.427Z,77.40
2023-04-08T10:21:47.842Z,77.10
2023-04-08T10:23:59.116Z,77.20
2023-04-08T10:26:01.982Z,78.10
2023-04-08T10:28:25.629Z,77.00
2023-04-08T10:30:42.846Z,75.90
2023-04-08T10:32:46.383Z,76.10
2023-04-08T10:34:54.534Z,75.10
2023-04-08T10:37:01.931Z,74.20
2023-04-08T10:39:04.922Z,74.90
2023-04-08T10:41:07.950Z,75.50
2023-04-08T10:43:11.773Z,75.70
2023-04-08T10:45:19.301Z,74.60
2023-04-08T10:47:28.564Z,75.70
2023-04-08T10:49:35.643Z,77.30
2023-04-08T10:51:39.725Z,77.40
2023-04-08T10:53:42.613Z,76.40
2023-04-08T10:55:45.585Z,76.70
2023-04-08T10:57:48.345Z,76.30
2023-04-08T10:59:51.260Z,74.40
2023-04-08T11:01:55.406Z,72.40
2023-04-08T11:04:00.172Z,75.30
2023-04-08T11:06:03.373Z,76.40
2023-04-08T11:08:06.568Z,76.20
2023-04-08T11:10:10.305Z,75.10
2023-04-08T11:12:17.984Z,76.20
2023-04-08T11:14:24.364Z,75.70
2023-04-08T11:16:29.268Z,74.90
2023-04-08T11:18:32.471Z,74.40
2023-04-08T11:20:38.216Z,73.80
2023-04-08T11:22:41.599Z,73.60
2023-04-08T11:25:08.170Z,73.70
2023-04-08T11:27:11.041Z,74.40
2023-04-08T11:29:15.184Z,74.60
2023-04-08T11:31:18.218Z,74.50
2023-04-08T11:33:21.387Z,74.80
2023-04-08T11:35:24.379Z,75.80
2023-04-08T11:37:29.625Z,76.80
2023-04-08T11:39:32.437Z,76.00
2023-04-08T11:41:41.166Z,76.40
2023-04-08T11:43:53.629Z,77.10
2023-04-08T11:45:56.669Z,76.20
2023-04-08T11:47:59.595Z,76.40
2023-04-08T11:50:02.650Z,76.10
2023-04-08T11:52:06.000Z,75.90
2023-04-08T11:54:28.328Z,74.70
2023-04-08T11:56:33.572Z,75.00
2023-04-08T11:58:36.299Z,75.00
2023-04-08T12:00:39.594Z,74.90
2023-04-08T12:02:42.374Z,74.80
2023-04-08T12:04:45.106Z,74.20
2023-04-08T12:06:48.215Z,74.10
2023-04-08T12:08:51.080Z,74.90
2023-04-08T12:10:55.778Z,74.30
2023-04-08T12:12:58.696Z,74.80
2023-04-08T12:15:01.522Z,75.20
2023-04-08T12:17:04.308Z,74.30
2023-04-08T12:19:07.180Z,75.00
2023-04-08T12:21:09.932Z,75.30
2023-04-08T12:23:12.706Z,75.50
2023-04-08T12:25:15.455Z,76.10
2023-04-08T12:27:19.642Z,75.20
2023-04-08T12:29:22.498Z,76.10
2023-04-08T12:31:27.299Z,76.60
2023-04-08T12:33:30.541Z,76.90
2023-04-08T12:35:33.391Z,76.50
2023-04-08T12:37:36.353Z,76.60
2023-04-08T12:39:39.293Z,76.60
2023-04-08T12:41:42.289Z,76.70
2023-04-08T12:43:46.512Z,75.70
2023-04-08T12:45:49.794Z,74.60
2023-04-08T12:47:52.547Z,74.40
2023-04-08T12:49:55.357Z,74.00
2023-04-08T12:51:58.259Z,73.00
2023-04-08T12:54:01.965Z,73.60
2023-04-08T12:56:05.042Z,73.60
2023-04-08T12:58:07.838Z,73.10
2023-04-08T13:00:13.695Z,72.80
2023-04-08T13:02:16.529Z,72.80
2023-04-08T13:04:19.943Z,71.70
2023-04-08T13:06:23.207Z,70.80
2023-04-08T13:08:26.150Z,71.00
2023-04-08T13:10:28.938Z,70.60
2023-04-08T13:12:44.140Z,70.60
2023-04-08T13:14:47.052Z,70.70
2023-04-08T13:16:51.532Z,70.30
2023-04-08T13:18:54.390Z,70.40
2023-04-08T13:20:58.107Z,71.20
2023-04-08T13:23:01.538Z,71.20
2023-04-08T13:25:06.502Z,71.40
2023-04-08T13:27:09.467Z,71.00
2023-04-08T13:29:12.265Z,70.40
2023-04-08T13:31:15.447Z,70.30
2023-04-08T13:33:19.577Z,70.40
2023-04-08T13:35:22.394Z,70.10
2023-04-08T13:37:25.195Z,69.80
2023-04-08T13:39:27.900Z,68.80
2023-04-08T13:41:30.628Z,68.60
2023-04-08T13:43:33.349Z,69.10
2023-04-08T13:45:36.113Z,69.60
2023-04-08T13:47:38.903Z,69.30
2023-04-08T13:49:43.001Z,69.40
2023-04-08T13:51:45.745Z,69.10
2023-04-08T13:53:48.636Z,69.60
2023-04-08T13:55:54.987Z,69.00
2023-04-08T13:57:57.766Z,68.90
2023-04-08T14:00:00.645Z,67.50
2023-04-08T14:02:03.923Z,67.90
2023-04-08T14:04:06.945Z,67.00
2023-04-08T14:06:11.158Z,68.10
2023-04-08T14:08:14.170Z,67.20
2023-04-08T14:10:17.487Z,67.80
2023-04-08T14:12:20.344Z,67.10
2023-04-08T14:14:23.086Z,67.10
2023-04-08T14:16:26.019Z,66.70
2023-04-08T14:18:29.344Z,66.40
2023-04-08T14:20:32.192Z,67.10
2023-04-08T14:22:36.247Z,67.30
2023-04-08T14:24:39.090Z,66.60
2023-04-08T14:26:42.197Z,65.50
2023-04-08T14:28:44.979Z,65.50
2023-04-08T14:30:48.812Z,65.30
2023-04-08T14:32:51.718Z,65.80
2023-04-08T14:34:54.478Z,66.10
2023-04-08T14:36:57.238Z,65.30
2023-04-08T14:39:01.487Z,65.80
2023-04-08T14:41:04.506Z,65.40
2023-04-08T14:43:07.445Z,65.40
2023-04-08T14:45:10.898Z,65.20
2023-04-08T14:47:13.638Z,65.40
2023-04-08T14:49:16.671Z,64.60
2023-04-08T14:51:19.524Z,63.90
2023-04-08T14:53:23.356Z,63.80
2023-04-08T14:55:28.573Z,62.70
2023-04-08T14:57:31.900Z,62.60
2023-04-08T14:59:35.012Z,62.50
2023-04-08T15:01:38.328Z,62.20
2023-04-08T15:03:41.276Z,62.40
2023-04-08T15:05:45.028Z,63.00
2023-04-08T15:07:48.447Z,63.00
2023-04-08T15:09:51.256Z,63.40
2023-04-08T15:11:55.859Z,63.50
2023-04-08T15:13:58.601Z,64.10
2023-04-08T15:16:01.404Z,63.80
2023-04-08T15:18:04.352Z,64.50
2023-04-08T15:20:08.490Z,65.50
2023-04-08T15:22:11.770Z,64.80
2023-04-08T15:24:14.615Z,65.30
2023-04-08T15:26:17.522Z,65.10
2023-04-08T15:28:21.688Z,65.80
2023-04-08T15:30:25.512Z,65.60
2023-04-08T15:32:28.824Z,65.70
2023-04-08T15:34:31.565Z,65.60
2023-04-08T15:36:36.415Z,65.80
2023-04-08T15:38:39.828Z,66.10
2023-04-08T15:40:43.304Z,66.10
2023-04-08T15:42:46.088Z,66.40
2023-04-08T15:44:50.229Z,66.00
2023-04-08T15:46:52.999Z,66.10
2023-04-08T15:48:55.836Z,66.30
2023-04-08T15:50:58.675Z,66.40
2023-04-08T15:53:01.496Z,66.50
2023-04-08T15:55:04.448Z,66.70
2023-04-08T15:57:07.224Z,66.80
2023-04-08T15:59:10.082Z,66.80
2023-04-08T16:01:14.281Z,67.20
2023-04-08T16:03:17.623Z,67.30
2023-04-08T16:05:20.739Z,67.50
2023-04-08T16:07:23.474Z,67.50
2023-04-08T16:09:27.119Z,67.50
2023-04-08T16:11:29.939Z,67.60
2023-04-08T16:13:34.178Z,67.60
2023-04-08T16:15:37.098Z,67.60
2023-04-08T16:17:41.297Z,67.60
2023-04-08T16:19:44.086Z,67.80
2023-04-08T16:21:46.800Z,68.00
2023-04-08T16:23:49.737Z,68.30
2023-04-08T16:25:52.805Z,69.20
2023-04-08T16:27:55.532Z,68.70
2023-04-08T16:29:58.318Z,69.00
2023-04-08T16:32:01.568Z,69.10
2023-04-08T16:34:05.984Z,69.20
2023-04-08T16:36:08.799Z,69.40
2023-04-08T16:38:11.900Z,69.40
2023-04-08T16:40:14.690Z,69.50
2023-04-08T16:42:18.208Z,69.80
2023-04-08T16:44:21.202Z,69.70
2023-04-08T16:46:25.447Z,69.60
2023-04-08T16:48:28.271Z,69.80
2023-04-08T16:50:32.401Z,70.10
2023-04-08T16:52:35.754Z,70.20
2023-04-08T16:54:38.486Z,70.10
2023-04-08T16:56:44.394Z,70.10
2023-04-08T16:58:47.332Z,70.20
2023-04-08T17:00:50.062Z,70.00
2023-04-08T17:02:55.510Z,69.90
2023-04-08T17:04:58.505Z,70.10
2023-04-08T17:07:03.375Z,70.10
2023-04-08T17:09:06.560Z,70.20
2023-04-08T17:11:10.470Z,70.00
2023-04-08T17:13:14.970Z,70.00
2023-04-08T17:15:17.890Z,69.80
2023-04-08T17:17:20.722Z,69.90
2023-04-08T17:19:23.531Z,70.00
2023-04-08T17:21:26.847Z,70.10
2023-04-08T17:23:30.897Z,70.30
2023-04-08T17:25:35.462Z,70.20
2023-04-08T17:27:38.276Z,70.40
2023-04-08T17:29:41.434Z,70.40
2023-04-08T17:31:44.339Z,70.40
2023-04-08T17:33:47.250Z,70.10
2023-04-08T17:35:50.133Z,70.10
2023-04-08T17:37:53.265Z,70.40
2023-04-08T17:39:57.419Z,70.30
2023-04-08T17:42:02.048Z,70.30
2023-04-08T17:44:05.978Z,70.50
2023-04-08T17:46:09.119Z,70.40
2023-04-08T17:48:11.902Z,70.40
2023-04-08T17:50:14.787Z,70.80
2023-04-08T17:52:17.554Z,70.50
2023-04-08T17:54:20.790Z,70.40
2023-04-08T17:56:25.028Z,70.30
2023-04-08T17:58:27.974Z,70.30
2023-04-08T18:00:30.905Z,70.90
2023-04-08T18:02:33.894Z,71.70
2023-04-08T18:04:36.832Z,72.40
2023-04-08T18:06:39.634Z,72.30
2023-04-08T18:08:42.378Z,72.20
2023-04-08T18:10:46.441Z,71.90
2023-04-08T18:12:57.816Z,71.80
2023-04-08T18:15:11.467Z,71.60
2023-04-08T18:17:14.815Z,71.30
2023-04-08T18:19:17.573Z,71.20
2023-04-08T18:21:21.861Z,71.20
2023-04-08T18:23:24.823Z,70.90
2023-04-08T18:25:27.590Z,70.80
2023-04-08T18:27:30.343Z,71.60
2023-04-08T18:29:34.568Z,71.10
2023-04-08T18:31:37.301Z,71.10
2023-04-08T18:33:40.305Z,71.00
2023-04-08T18:35:43.258Z,71.20
2023-04-08T18:37:46.303Z,71.10
2023-04-08T18:39:49.346Z,71.00
2023-04-08T18:41:52.174Z,71.00
2023-04-08T18:43:55.567Z,70.90
2023-04-08T18:45:59.795Z,70.90
2023-04-08T18:48:02.626Z,71.00
2023-04-08T18:50:06.516Z,70.80
2023-04-08T18:52:09.408Z,70.90
2023-04-08T18:54:12.165Z,71.20
2023-04-08T18:56:18.768Z,71.20
2023-04-08T18:58:21.578Z,71.40
2023-04-08T19:00:24.644Z,71.40
2023-04-08T19:02:28.777Z,71.50
2023-04-08T19:04:31.832Z,71.40
2023-04-08T19:06:35.934Z,71.40
2023-04-08T19:08:38.804Z,71.20
2023-04-08T19:10:45.300Z,71.20
2023-04-08T19:12:48.135Z,71.40
2023-04-08T19:14:51.154Z,71.70
2023-04-08T19:16:53.910Z,71.90
2023-04-08T19:18:58.000Z,72.10
2023-04-08T19:21:02.229Z,72.10
2023-04-08T19:23:05.813Z,72.60
2023-04-08T19:25:09.254Z,71.80
2023-04-08T19:27:13.924Z,71.90
2023-04-08T19:29:16.727Z,71.80
2023-04-08T19:31:21.550Z,71.80
2023-04-08T19:33:27.831Z,71.80
2023-04-08T19:35:32.188Z,72.50
2023-04-08T19:37:35.404Z,73.00
2023-04-08T19:39:38.355Z,73.20
2023-04-08T19:41:41.363Z,73.50
2023-04-08T19:43:44.101Z,73.90
2023-04-08T19:45:46.819Z,74.30
2023-04-08T19:47:49.590Z,74.40
2023-04-08T19:49:52.337Z,74.00
2023-04-08T19:51:56.465Z,73.90
2023-04-08T19:53:59.358Z,73.50
2023-04-08T19:56:02.489Z,73.40
2023-04-08T19:58:05.596Z,73.10
2023-04-08T20:00:10.018Z,72.90
2023-04-08T20:02:13.672Z,72.90
2023-04-08T20:04:16.704Z,73.10
2023-04-08T20:06:20.241Z,73.10
2023-04-08T20:08:24.476Z,73.40
2023-04-08T20:10:27.182Z,73.40
2023-04-08T20:12:30.317Z,73.40
2023-04-08T20:14:35.625Z,73.30
2023-04-08T20:16:38.518Z,73.40
2023-04-08T20:18:41.484Z,73.20
2023-04-08T20:20:44.267Z,73.20
2023-04-08T20:22:47.404Z,73.20
2023-04-08T20:24:51.535Z,73.10
2023-04-08T20:26:55.299Z,73.10
2023-04-08T20:28:59.049Z,73.00
2023-04-08T20:31:05.989Z,72.90
2023-04-08T20:33:09.096Z,73.00
2023-04-08T20:35:13.784Z,73.20
2023-04-08T20:37:18.481Z,73.10
2023-04-08T20:39:22.380Z,73.20
2023-04-08T20:41:27.172Z,73.30
2023-04-08T20:43:29.994Z,73.20
2023-04-08T20:45:32.764Z,73.30
2023-04-08T20:47:35.700Z,73.40
2023-04-08T20:49:41.023Z,73.40
2023-04-08T20:51:43.783Z,73.70
2023-04-08T20:53:46.514Z,73.90
2023-04-08T20:55:49.226Z,73.70
2023-04-08T20:57:53.344Z,74.00
2023-04-08T20:59:56.868Z,73.80
2023-04-08T21:01:59.799Z,73.80
2023-04-08T21:04:03.395Z,73.80
2023-04-08T21:06:06.239Z,73.80
2023-04-08T21:08:08.980Z,73.90
2023-04-08T21:10:12.438Z,74.00
2023-04-08T21:12:15.330Z,74.00
2023-04-08T21:14:19.461Z,74.10
2023-04-08T21:16:22.408Z,74.60
2023-04-08T21:18:25.576Z,75.00
2023-04-08T21:20:28.328Z,75.10
2023-04-08T21:22:32.215Z,75.10
2023-04-08T21:24:34.998Z,75.00
2023-04-08T21:26:37.735Z,74.90
2023-04-08T21:28:41.025Z,74.80
2023-04-08T21:30:45.218Z,74.60
2023-04-08T21:32:48.169Z,74.70
2023-04-08T21:34:53.803Z,74.60
2023-04-08T21:36:56.573Z,74.50
2023-04-08T21:38:59.406Z,74.40
2023-04-08T21:41:02.544Z,74.50
2023-04-08T21:43:07.732Z,74.40
2023-04-08T21:45:11.666Z,74.40
2023-04-08T21:47:15.839Z,74.40
2023-04-08T21:49:18.588Z,74.30
2023-04-08T21:51:21.617Z,74.30
2023-04-08T21:53:24.537Z,74.40
2023-04-08T21:55:29.267Z,74.20
2023-04-08T21:57:32.323Z,74.10
2023-04-08T21:59:35.208Z,75.40
2023-04-08T22:01:41.456Z,75.40
2023-04-08T22:03:45.767Z,75.70
2023-04-08T22:05:48.584Z,75.70
2023-04-08T22:07:51.381Z,75.70
2023-04-08T22:09:55.431Z,75.30
2023-04-08T22:11:58.228Z,75.20
2023-04-08T22:14:01.031Z,75.20
2023-04-08T22:16:03.851Z,75.30
2023-04-08T22:18:07.085Z,75.10
2023-04-08T22:20:12.591Z,75.00
2023-04-08T22:22:15.459Z,75.10
2023-04-08T22:24:18.466Z,75.10
2023-04-08T22:26:21.579Z,75.20
2023-04-08T22:28:24.517Z,75.30
2023-04-08T22:30:27.312Z,75.50
2023-04-08T22:32:30.053Z,75.50
2023-04-08T22:34:32.882Z,75.60
2023-04-08T22:36:37.047Z,75.60
2023-04-08T22:38:39.749Z,75.60
2023-04-08T22:40:42.449Z,75.60
2023-04-08T22:42:45.190Z,75.70
2023-04-08T22:44:47.977Z,75.80
2023-04-08T22:46:50.781Z,75.60
2023-04-08T22:48:53.904Z,75.60
2023-04-08T22:50:57.316Z,75.70
2023-04-08T22:53:01.931Z,75.90
2023-04-08T22:55:06.599Z,75.50
2023-04-08T22:57:09.476Z,75.90
2023-04-08T22:59:12.266Z,76.00
2023-04-08T23:01:18.022Z,76.10
2023-04-08T23:03:21.020Z,76.00
2023-04-08T23:05:24.139Z,75.90
2023-04-08T23:07:26.901Z,76.10
2023-04-08T23:09:31.186Z,76.00
2023-04-08T23:11:36.343Z,76.10
2023-04-08T23:13:39.224Z,76.20
2023-04-08T23:15:42.013Z,76.10
2023-04-08T23:17:44.820Z,76.00
2023-04-08T23:19:47.724Z,76.40
2023-04-08T23:21:50.443Z,76.90
2023-04-08T23:23:53.269Z,77.00
2023-04-08T23:26:18.621Z,76.80
2023-04-08T23:28:21.835Z,76.70
2023-04-08T23:30:24.624Z,76.50
2023-04-08T23:32:27.702Z,76.40
2023-04-08T23:34:30.516Z,76.50
2023-04-08T23:36:33.317Z,76.60
2023-04-08T23:38:36.950Z,76.70
2023-04-08T23:40:39.842Z,77.00
2023-04-08T23:42:43.926Z,77.00
2023-04-08T23:44:48.307Z,77.10
2023-04-08T23:46:51.149Z,76.90
2023-04-08T23:48:54.291Z,76.80
2023-04-08T23:50:57.342Z,76.80
2023-04-08T23:53:00.192Z,77.30
2023-04-08T23:55:02.968Z,77.90
2023-04-08T23:57:05.749Z,77.90
2023-04-08T23:59:09.809Z,77.70
